McMurdo, Antarctica

7:07 AM NZST on May 30, 2015 (GMT +1200)
Williams Field | | Change Station
CLOSE
Current Station
Airport
Location: Williams Field,
Elevation: 79 ft
Nearby Weather Stations

Elev 79 ft 77.85 °S, 166.67 °E | Updated 1 hour ago

Mostly Cloudy
Mostly Cloudy
-13 °F
Feels Like -27 °F
N
6
Wind Variable Wind from WNW

Today
High -- | Low -- °F
--% Chance of Precip.
Yesterday
High -- | Low -- °F
Precip. -- in
12:00 PM 12:00 PM
Waxing Gibbous, 85% visible
Pressure 29.74 in
Visibility 6.2 miles
Clouds Scattered Clouds 1500 ft
Mostly Cloudy 10000 ft
Windchill -27 °F
Dew Point -20 °F
Humidity 70%
Rainfall 0.00 in
Snow Depth Not available.
UV 0 out of 12
Pollen Not available.
Air Quality Not available.
Flu Activity Not available.
METAR NZCM 291755Z 30005KT 9999 SCT015 BKN100 M25/M29 A2971 RMK ICE1430 SLP070

More Conditions Fewer Conditions

Pressure 29.74 in
Visibility 6.2 miles
Clouds Scattered Clouds 1500 ft
Mostly Cloudy 10000 ft
Windchill -27 °F
Dew Point -20 °F
Humidity 70%
Rainfall 0.00 in
Snow Depth Not available.
UV 0 out of 12
Pollen Not available.
Air Quality Not available.
Flu Activity Not available.
METAR NZCM 291755Z 30005KT 9999 SCT015 BKN100 M25/M29 A2971 RMK ICE1430 SLP070

More Conditions Fewer Conditions

10-Day Weather Forecast

Almanac

Astronomy

May. 30, 2015 Rise Set
Actual Time
Civil Twilight
Nautical Twilight
Astronomical Twilight
Moon
Length of Visible Light
Length of Day
Tomorrow will be .
, % of the Moon is Illuminated

Today's Extremes

Country Highs Country Lows

Community

WunderPhotos

Upload Photos

1,825,325 photos uploaded!

WunderBlogs® & News

Nearby

Air Quality

  Air Quality AQ Index Pollutant
Not available.

Snow Depth

Station Depth Elevation

Earthquake Activity

City Distance Mag. Time & Date
Minimum magnitude displayed is 2.5.

Coastal Water Temperatures

Place Temperature

Stations

Nearby Weather Stations

Station Location Temp. Windchill Dew Point Humidity Wind Precip. Elev Updated Type